East Lake, Colorado
Current Conditions -  °F | °C
As of 3:55 PM on Monday 24 Nov 2014 (Local Time) from KEIK Reporting Station
Scattered Clouds Scattered Clouds  
Wind Chill: 28°   Ceiling: Unl
Heat Index: 38°   Visibility: 10mi
Dew Point: 12°   Wind: 17mph
Humidity: 35%   Direction: 360°N
Pressure: 30.1"   Gusts: 28mph
Location:  39.929°N, 104.953°W
Report Text: KEIK 242255Z AUTO 36015G24KT 10SM SCT120 03/M11 A3010 RMK AO2 T00321110
Loading
Personal Weather Stations






























Interactive Weather Map New forecast layout! Learn more

10-Day Weather Forecast

Advertisements
Track Severe Weather on mobile